createdAt,value
2023-05-15T00:02:03.728Z,5.88
2023-05-15T00:06:06.241Z,6.90
2023-05-15T00:10:08.934Z,6.38
2023-05-15T00:14:10.977Z,7.22
2023-05-15T00:18:13.054Z,8.25
2023-05-15T00:22:15.349Z,7.25
2023-05-15T00:26:17.626Z,9.15
2023-05-15T00:30:19.661Z,6.22
2023-05-15T00:34:22.032Z,8.35
2023-05-15T00:38:24.133Z,5.80
2023-05-15T00:42:26.604Z,6.82
2023-05-15T00:46:31.537Z,8.25
2023-05-15T00:50:33.791Z,9.50
2023-05-15T00:54:35.891Z,6.22
2023-05-15T00:58:39.034Z,7.75
2023-05-15T01:02:41.168Z,6.18
2023-05-15T01:06:43.414Z,5.97
2023-05-15T01:10:47.970Z,6.32
2023-05-15T01:14:50.313Z,8.18
2023-05-15T01:18:52.412Z,5.68
2023-05-15T01:23:05.567Z,10.32
2023-05-15T01:27:32.114Z,4.28
2023-05-15T01:31:36.278Z,8.98
2023-05-15T01:35:51.089Z,5.68
2023-05-15T01:40:01.057Z,6.25
2023-05-15T01:44:08.043Z,5.93
2023-05-15T01:48:12.696Z,7.85
2023-05-15T01:52:20.579Z,7.20
2023-05-15T01:56:24.324Z,5.97
2023-05-15T02:00:28.510Z,7.80
2023-05-15T02:04:31.353Z,5.60
2023-05-15T02:08:35.056Z,5.65
2023-05-15T02:12:39.430Z,8.13
2023-05-15T02:16:41.313Z,6.00
2023-05-15T02:20:44.227Z,11.93
2023-05-15T02:24:46.286Z,7.55
2023-05-15T02:29:02.286Z,6.60
2023-05-15T02:33:14.713Z,8.50
2023-05-15T02:37:20.695Z,5.43
2023-05-15T02:41:23.779Z,9.27
2023-05-15T02:45:26.573Z,7.57
2023-05-15T02:49:28.847Z,5.63
2023-05-15T02:53:32.544Z,8.35
2023-05-15T02:57:34.613Z,7.40
2023-05-15T03:01:36.684Z,9.68
2023-05-15T03:05:39.157Z,5.57
2023-05-15T03:09:41.445Z,6.35
2023-05-15T03:13:43.550Z,4.78
2023-05-15T03:17:46.330Z,5.32
2023-05-15T03:21:48.590Z,5.78
2023-05-15T03:25:50.566Z,10.00
2023-05-15T03:29:52.788Z,5.88
2023-05-15T03:33:54.431Z,5.28
2023-05-15T03:37:56.848Z,5.18
2023-05-15T03:41:59.008Z,8.02
2023-05-15T03:46:01.089Z,6.07
2023-05-15T03:50:03.351Z,7.20
2023-05-15T03:54:08.757Z,5.50
2023-05-15T03:58:10.749Z,4.72
2023-05-15T04:02:12.767Z,9.48
2023-05-15T04:06:14.870Z,9.70
2023-05-15T04:10:17.219Z,6.13
2023-05-15T04:14:19.415Z,5.90
2023-05-15T04:18:21.410Z,4.95
2023-05-15T04:22:23.454Z,9.73
2023-05-15T04:26:25.609Z,5.82
2023-05-15T04:30:27.689Z,7.63
2023-05-15T04:34:30.075Z,9.25
2023-05-15T04:38:32.491Z,6.60
2023-05-15T04:42:34.897Z,6.80
2023-05-15T04:46:37.676Z,4.43
2023-05-15T04:50:39.707Z,5.82
2023-05-15T04:54:42.107Z,8.20
2023-05-15T04:58:44.095Z,6.63
2023-05-15T05:02:46.327Z,8.25
2023-05-15T05:06:48.356Z,6.13
2023-05-15T05:10:55.934Z,5.70
2023-05-15T05:14:57.955Z,7.45
2023-05-15T05:19:00.086Z,6.10
2023-05-15T05:23:02.169Z,7.25
2023-05-15T05:27:05.530Z,10.38
2023-05-15T05:31:07.653Z,5.75
2023-05-15T05:35:10.557Z,10.38
2023-05-15T05:39:12.616Z,5.78
2023-05-15T05:43:14.708Z,9.98
2023-05-15T05:47:17.852Z,4.72
2023-05-15T05:51:19.921Z,7.20
2023-05-15T05:55:21.927Z,15.88
2023-05-15T05:59:23.994Z,11.15
2023-05-15T06:03:26.857Z,8.40
2023-05-15T06:07:28.934Z,6.80
2023-05-15T06:11:31.245Z,11.60
2023-05-15T06:15:33.385Z,10.20
2023-05-15T06:19:35.539Z,14.95
2023-05-15T06:23:37.723Z,14.30
2023-05-15T06:27:41.100Z,4.72
2023-05-15T06:31:43.177Z,7.90
2023-05-15T06:35:45.484Z,9.35
2023-05-15T06:39:47.514Z,7.65
2023-05-15T06:43:49.568Z,9.35
2023-05-15T06:47:51.645Z,6.68
2023-05-15T06:51:54.943Z,11.70
2023-05-15T06:55:56.998Z,9.93
2023-05-15T06:59:59.027Z,12.38
2023-05-15T07:04:01.105Z,8.88
2023-05-15T07:08:03.092Z,9.05
2023-05-15T07:12:05.537Z,10.45
2023-05-15T07:16:07.740Z,13.38
2023-05-15T07:20:09.983Z,13.35
2023-05-15T07:24:12.055Z,10.63
2023-05-15T07:28:14.209Z,18.27
2023-05-15T07:32:16.232Z,16.48
2023-05-15T07:36:18.281Z,13.98
2023-05-15T07:40:20.461Z,11.90
2023-05-15T07:44:22.490Z,18.42
2023-05-15T07:48:24.605Z,17.15
2023-05-15T07:52:26.609Z,14.30
2023-05-15T07:56:28.643Z,12.98
2023-05-15T08:00:30.958Z,18.17
2023-05-15T08:04:33.054Z,17.02
2023-05-15T08:08:35.198Z,18.60
2023-05-15T08:12:37.851Z,19.77
2023-05-15T08:16:39.894Z,17.83
2023-05-15T08:20:41.942Z,17.92
2023-05-15T08:24:44.958Z,15.18
2023-05-15T08:28:46.928Z,12.60
2023-05-15T08:32:49.259Z,14.23
2023-05-15T08:36:52.374Z,13.98
2023-05-15T08:40:58.750Z,20.27
2023-05-15T08:45:01.462Z,16.13
2023-05-15T08:49:20.254Z,16.10
2023-05-15T08:53:22.829Z,18.05
2023-05-15T08:57:26.836Z,19.90
2023-05-15T09:01:30.469Z,20.77
2023-05-15T09:05:33.448Z,20.17
2023-05-15T09:09:35.902Z,20.50
2023-05-15T09:13:37.969Z,28.30
2023-05-15T09:17:40.346Z,29.40
2023-05-15T09:21:42.564Z,21.02
2023-05-15T09:25:44.922Z,30.45
2023-05-15T09:29:47.029Z,23.55
2023-05-15T09:33:59.613Z,23.55
2023-05-15T09:38:03.716Z,25.63
2023-05-15T09:42:07.714Z,25.52
2023-05-15T09:46:13.038Z,31.98
2023-05-15T09:50:22.084Z,22.90
2023-05-15T09:54:24.384Z,23.15
2023-05-15T09:58:26.418Z,25.60
2023-05-15T10:02:34.579Z,31.88
2023-05-15T10:06:47.512Z,27.17
2023-05-15T10:10:49.786Z,18.10
2023-05-15T10:14:53.882Z,19.83
2023-05-15T10:18:57.615Z,22.38
2023-05-15T10:23:01.120Z,21.83
2023-05-15T10:27:04.418Z,18.95
2023-05-15T10:31:07.325Z,22.40
2023-05-15T10:35:10.967Z,17.55
2023-05-15T10:39:13.311Z,16.92
2023-05-15T10:43:15.790Z,17.35
2023-05-15T10:47:17.872Z,16.77
2023-05-15T10:51:29.121Z,18.77
2023-05-15T10:55:31.418Z,22.15
2023-05-15T10:59:35.030Z,21.17
2023-05-15T11:03:48.927Z,23.27
2023-05-15T11:08:21.596Z,23.25
2023-05-15T11:12:24.740Z,23.52
2023-05-15T11:16:54.743Z,22.67
2023-05-15T11:20:59.515Z,24.10
2023-05-15T11:25:12.614Z,25.23
2023-05-15T11:29:19.151Z,25.25
2023-05-15T11:33:21.472Z,23.13
2023-05-15T11:37:24.345Z,24.17
2023-05-15T11:41:31.950Z,22.08
2023-05-15T11:45:36.976Z,21.63
2023-05-15T11:49:39.275Z,29.58
2023-05-15T11:53:42.935Z,22.55
2023-05-15T11:57:46.737Z,25.35
2023-05-15T12:01:49.071Z,23.63
2023-05-15T12:05:58.949Z,21.63
2023-05-15T12:10:02.386Z,21.60
2023-05-15T12:14:04.425Z,22.95
2023-05-15T12:18:08.192Z,22.88
2023-05-15T12:22:10.250Z,23.23
2023-05-15T12:26:12.362Z,21.52
2023-05-15T12:30:15.202Z,21.25
2023-05-15T12:34:17.294Z,22.25
2023-05-15T12:38:21.846Z,20.35
2023-05-15T12:42:23.829Z,28.55
2023-05-15T12:46:30.042Z,20.50
2023-05-15T12:50:33.483Z,20.70
2023-05-15T12:54:42.404Z,23.73
2023-05-15T12:58:44.489Z,20.88
2023-05-15T13:02:46.743Z,22.95
2023-05-15T13:06:49.186Z,20.75
2023-05-15T13:10:59.121Z,28.00
2023-05-15T13:15:01.178Z,28.08
2023-05-15T13:19:03.497Z,21.67
2023-05-15T13:23:05.771Z,27.40
2023-05-15T13:27:07.874Z,23.73
2023-05-15T13:31:10.093Z,25.17
2023-05-15T13:35:12.385Z,25.00
2023-05-15T13:39:14.323Z,23.10
2023-05-15T13:43:16.014Z,22.95
2023-05-15T13:47:18.035Z,24.20
2023-05-15T13:51:20.054Z,27.05
2023-05-15T13:55:23.266Z,24.42
2023-05-15T13:59:25.513Z,24.08
2023-05-15T14:03:27.610Z,23.63
2023-05-15T14:07:29.678Z,29.40
2023-05-15T14:11:31.696Z,31.88
2023-05-15T14:15:33.824Z,25.75
2023-05-15T14:19:35.864Z,23.05
2023-05-15T14:23:37.965Z,27.65
2023-05-15T14:27:40.119Z,27.75
2023-05-15T14:31:43.185Z,23.25
2023-05-15T14:35:45.569Z,23.90
2023-05-15T14:39:47.764Z,29.02
2023-05-15T14:43:49.806Z,26.25
2023-05-15T14:47:52.031Z,24.60
2023-05-15T14:51:54.051Z,23.77
2023-05-15T14:55:56.176Z,25.80
2023-05-15T14:59:58.123Z,32.03
2023-05-15T15:04:00.424Z,23.67
2023-05-15T15:08:05.202Z,23.60
2023-05-15T15:12:07.778Z,25.00
2023-05-15T15:16:10.062Z,23.70
2023-05-15T15:20:13.041Z,24.70
2023-05-15T15:24:15.460Z,23.10
2023-05-15T15:28:17.425Z,26.63
2023-05-15T15:32:19.506Z,25.13
2023-05-15T15:36:21.766Z,26.33
2023-05-15T15:40:24.400Z,27.92
2023-05-15T15:44:26.761Z,26.92
2023-05-15T15:48:28.681Z,22.10
2023-05-15T15:52:30.802Z,26.65
2023-05-15T15:56:32.861Z,22.58
2023-05-15T16:00:35.501Z,22.95
2023-05-15T16:04:38.052Z,20.85
2023-05-15T16:08:40.351Z,21.30
2023-05-15T16:12:42.828Z,20.92
2023-05-15T16:16:45.905Z,23.60
2023-05-15T16:20:48.560Z,25.08
2023-05-15T16:24:50.544Z,24.45
2023-05-15T16:28:52.593Z,25.80
2023-05-15T16:32:54.662Z,19.50
2023-05-15T16:36:56.578Z,19.27
2023-05-15T16:40:58.806Z,22.20
2023-05-15T16:45:00.865Z,21.58
2023-05-15T16:49:02.868Z,20.95
2023-05-15T16:53:05.463Z,16.38
2023-05-15T16:57:07.578Z,17.00
2023-05-15T17:01:09.529Z,20.00
2023-05-15T17:05:11.970Z,21.95
2023-05-15T17:09:14.074Z,19.17
2023-05-15T17:13:16.140Z,21.15
2023-05-15T17:17:18.602Z,24.45
2023-05-15T17:21:20.668Z,23.95
2023-05-15T17:25:22.785Z,25.33
2023-05-15T17:29:25.152Z,23.90
2023-05-15T17:33:27.067Z,23.15
2023-05-15T17:37:29.128Z,24.70
2023-05-15T17:41:31.181Z,24.35
2023-05-15T17:45:33.294Z,28.92
2023-05-15T17:49:35.710Z,24.35
2023-05-15T17:53:37.788Z,28.85
2023-05-15T17:57:39.755Z,27.60
2023-05-15T18:01:42.028Z,24.70
2023-05-15T18:05:47.913Z,27.00
2023-05-15T18:09:49.927Z,31.38
2023-05-15T18:13:52.087Z,27.05
2023-05-15T18:17:54.183Z,26.05
2023-05-15T18:21:57.435Z,28.83
2023-05-15T18:25:59.621Z,23.20
2023-05-15T18:30:02.208Z,23.75
2023-05-15T18:34:04.253Z,24.50
2023-05-15T18:38:06.361Z,23.83
2023-05-15T18:42:08.658Z,23.23
2023-05-15T18:46:10.714Z,26.40
2023-05-15T18:50:14.125Z,24.98
2023-05-15T18:54:16.128Z,27.50
2023-05-15T18:58:18.160Z,27.27
2023-05-15T19:02:20.197Z,27.58
2023-05-15T19:06:22.320Z,33.20
2023-05-15T19:10:24.622Z,29.35
2023-05-15T19:14:26.894Z,20.65
2023-05-15T19:18:28.988Z,20.35
2023-05-15T19:22:31.052Z,16.25
2023-05-15T19:26:33.263Z,21.90
2023-05-15T19:30:35.333Z,22.80
2023-05-15T19:34:37.641Z,16.40
2023-05-15T19:38:39.908Z,25.08
2023-05-15T19:42:41.923Z,26.20
2023-05-15T19:46:46.514Z,24.08
2023-05-15T19:50:48.642Z,29.33
2023-05-15T19:54:50.733Z,35.65
2023-05-15T19:58:52.728Z,38.58
2023-05-15T20:02:55.051Z,36.70
2023-05-15T20:06:57.202Z,27.88
2023-05-15T20:10:59.377Z,30.08
2023-05-15T20:15:01.493Z,36.85
2023-05-15T20:19:04.126Z,24.83
2023-05-15T20:23:06.162Z,25.67
2023-05-15T20:27:08.215Z,27.05
2023-05-15T20:31:10.248Z,26.33
2023-05-15T20:35:12.648Z,31.75
2023-05-15T20:39:14.600Z,23.33
2023-05-15T20:43:16.683Z,28.33
2023-05-15T20:47:19.285Z,36.38
2023-05-15T20:51:22.351Z,28.08
2023-05-15T20:55:24.393Z,28.80
2023-05-15T20:59:26.384Z,28.13
2023-05-15T21:03:28.922Z,29.15
2023-05-15T21:07:31.031Z,24.25
2023-05-15T21:11:33.106Z,21.95
2023-05-15T21:15:35.231Z,21.00
2023-05-15T21:19:37.405Z,22.73
2023-05-15T21:23:39.413Z,18.23
2023-05-15T21:27:42.026Z,16.75
2023-05-15T21:31:44.303Z,19.33
2023-05-15T21:35:48.679Z,20.85
2023-05-15T21:39:50.827Z,21.73
2023-05-15T21:43:53.118Z,17.95
2023-05-15T21:47:55.349Z,18.42
2023-05-15T21:51:57.412Z,16.35
2023-05-15T21:56:02.850Z,15.77
2023-05-15T22:00:07.396Z,14.82
2023-05-15T22:04:09.543Z,12.55
2023-05-15T22:08:11.568Z,11.07
2023-05-15T22:12:13.558Z,12.75
2023-05-15T22:16:15.940Z,11.55
2023-05-15T22:20:18.843Z,10.93
2023-05-15T22:24:20.906Z,11.77
2023-05-15T22:28:22.903Z,9.93
2023-05-15T22:32:25.119Z,9.63
2023-05-15T22:36:27.272Z,15.18
2023-05-15T22:40:29.265Z,11.05
2023-05-15T22:44:31.324Z,8.32
2023-05-15T22:48:34.014Z,13.93
2023-05-15T22:52:38.082Z,10.73
2023-05-15T22:56:40.210Z,12.27
2023-05-15T23:00:42.238Z,11.05
2023-05-15T23:04:44.268Z,9.70
2023-05-15T23:08:46.338Z,10.50
2023-05-15T23:12:48.367Z,11.93
2023-05-15T23:16:50.658Z,10.52
2023-05-15T23:20:52.734Z,13.43
2023-05-15T23:24:54.786Z,13.20
2023-05-15T23:28:56.799Z,9.18
2023-05-15T23:32:58.859Z,10.85
2023-05-15T23:37:00.959Z,8.30
2023-05-15T23:41:02.708Z,8.00
2023-05-15T23:45:05.504Z,12.27
2023-05-15T23:49:07.493Z,10.55
2023-05-15T23:53:09.608Z,9.30
2023-05-15T23:57:11.651Z,13.73
